Cosco Auckland — VRKF8 — position and weather

sailwx.info

Track history (hours):
 
Tides and Currents Weather Stations Pressure Air Temp Water Temp Dewpoint Dewpoint Depression Visibility Wind Speed Wind Dir Waves Ship Positions

Cosco Auckland

Last reported at 2017-Nov-20 00:30 UTC. Time now 2017-Nov-20 19:17 UTC.
Position N 28°44' W 119°31'.

Length 261 m; draft 10.4 m.

Type: Ship (hazmat cat A). MMSI: 477765800.

Date/timePositionNaut miles runAvg speedWind from/ knotsBaromVisibWave heightAir tempDewpointWater temp
2017-Nov-20 00:30N 28°44' W 119°31'1114.6
2017-Nov-19 23:46N 28°37' W 119°22'414.6
2017-Nov-19 23:30N 28°34' W 119°19'714.5
2017-Nov-19 23:00N 28°30' W 119°13'714.4
2017-Nov-19 22:30N 28°25' W 119°07'814.4
2017-Nov-19 21:59N 28°20' W 119°00'714.3
2017-Nov-19 21:30N 28°15' W 118°54'914.3
2017-Nov-19 20:52N 28°09' W 118°46'914.5
2017-Nov-19 20:14N 28°04' W 118°39'314.8
2017-Nov-19 20:01N 28°01' W 118°36'1114.4
2017-Nov-19 19:14N 27°54' W 118°26'314.2
2017-Nov-19 19:00N 27°52' W 118°23'714.2
2017-Nov-19 18:30N 27°47' W 118°17'1414.3
2017-Nov-19 17:34N 27°38' W 118°06'114.3
2017-Nov-19 17:30N 27°38' W 118°05'714.5
2017-Nov-19 17:01N 27°33' W 117°59'12414.2
2017-Nov-19 08:15N 26°12' W 116°14'2613.6
2017-Nov-19 06:22N 25°55' W 115°52'1314.0
2017-Nov-19 05:28N 25°47' W 115°41'1314.2
2017-Nov-19 04:31N 25°38' W 115°30'013.5
2017-Nov-19 04:30N 25°38' W 115°30'714.3
2017-Nov-19 04:00N 25°33' W 115°24'1014.4
2017-Nov-19 03:20N 25°27' W 115°16'2014.3
2017-Nov-19 01:58N 25°15' W 114°59'4814.5
2017-Nov-18 22:38N 24°46' W 114°16'214.3
2017-Nov-18 22:30N 24°45' W 114°14'714.3
2017-Nov-18 22:01N 24°41' W 114°08'3214.4
2017-Nov-18 19:49N 24°23' W 113°40'  
Track history (hours):
 
Tides and Currents Weather Stations Pressure Air Temp Water Temp Dewpoint Dewpoint Depression Visibility Wind Speed Wind Dir Waves Ship Positions

Cosco Auckland

Last reported at 2017-Nov-20 00:30 UTC. Time now 2017-Nov-20 19:17 UTC.
Position N 28°44' W 119°31'.

Length 261 m; draft 10.4 m.

Type: Ship (hazmat cat A). MMSI: 477765800.

Date/timePositionNaut miles runAvg speedWind from/ knotsBaromVisibWave heightAir tempDewpointWater temp
2017-Nov-20 00:30N 28°44' W 119°31'1114.6
2017-Nov-19 23:46N 28°37' W 119°22'414.6
2017-Nov-19 23:30N 28°34' W 119°19'714.5
2017-Nov-19 23:00N 28°30' W 119°13'714.4
2017-Nov-19 22:30N 28°25' W 119°07'814.4
2017-Nov-19 21:59N 28°20' W 119°00'714.3
2017-Nov-19 21:30N 28°15' W 118°54'914.3
2017-Nov-19 20:52N 28°09' W 118°46'914.5
2017-Nov-19 20:14N 28°04' W 118°39'314.8
2017-Nov-19 20:01N 28°01' W 118°36'1114.4
2017-Nov-19 19:14N 27°54' W 118°26'314.2
2017-Nov-19 19:00N 27°52' W 118°23'714.2
2017-Nov-19 18:30N 27°47' W 118°17'1414.3
2017-Nov-19 17:34N 27°38' W 118°06'114.3
2017-Nov-19 17:30N 27°38' W 118°05'714.5
2017-Nov-19 17:01N 27°33' W 117°59'12414.2
2017-Nov-19 08:15N 26°12' W 116°14'2613.6
2017-Nov-19 06:22N 25°55' W 115°52'1314.0
2017-Nov-19 05:28N 25°47' W 115°41'1314.2
2017-Nov-19 04:31N 25°38' W 115°30'013.5
2017-Nov-19 04:30N 25°38' W 115°30'714.3
2017-Nov-19 04:00N 25°33' W 115°24'1014.4
2017-Nov-19 03:20N 25°27' W 115°16'2014.3
2017-Nov-19 01:58N 25°15' W 114°59'4814.5
2017-Nov-18 22:38N 24°46' W 114°16'214.3
2017-Nov-18 22:30N 24°45' W 114°14'714.3
2017-Nov-18 22:01N 24°41' W 114°08'3214.4
2017-Nov-18 19:49N 24°23' W 113°40'  

Dump ship's entire track history